Time;durP1;ratioP1;P1;durP2;ratioP2;P2;SDS_P1;SDS_P2;PMS_P1;PMS_P2;Temp;Humidity;BMP_temperature;BMP_pressure;BME280_temperature;BME280_humidity;BME280_pressure;Samples;Min_cycle;Max_cycle;Signal;HPM_P1;HPM_P2
2023/04/06 00:01:41;;;;;;;526.40;500.55;;;-0.40;99.90;;;;;;5071929;28;20457;-78
2023/04/06 00:04:08;;;;;;;575.80;546.87;;;-0.50;99.90;;;;;;5071814;28;20222;-78
2023/04/06 00:06:35;;;;;;;634.23;601.07;;;-0.50;99.90;;;;;;5071953;28;20462;-78
2023/04/06 00:09:02;;;;;;;704.27;664.87;;;-0.50;99.90;;;;;;5071925;28;20550;-78
2023/04/06 00:11:29;;;;;;;751.30;704.70;;;-0.50;99.90;;;;;;5071606;28;20711;-78
2023/04/06 00:13:55;;;;;;;693.60;653.80;;;-0.50;99.90;;;;;;5072044;28;20447;-78
2023/04/06 00:16:24;;;;;;;666.60;630.30;;;-0.50;99.90;;;;;;5071997;28;20981;-78
2023/04/06 00:18:51;;;;;;;676.00;639.00;;;-0.60;99.90;;;;;;5071796;28;20843;-78
2023/04/06 00:21:17;;;;;;;697.50;657.93;;;-0.60;99.90;;;;;;5072016;28;20454;-78
2023/04/06 00:23:45;;;;;;;669.03;631.83;;;-0.50;99.90;;;;;;5071328;28;20836;-79
2023/04/06 00:26:11;;;;;;;702.27;660.70;;;-0.40;99.90;;;;;;5071862;28;20858;-78
2023/04/06 00:28:39;;;;;;;740.33;691.87;;;-0.50;99.90;;;;;;5071857;28;20493;-78
2023/04/06 00:31:05;;;;;;;698.90;656.80;;;-0.20;99.90;;;;;;5071671;28;20461;-78
2023/04/06 00:33:34;;;;;;;729.13;682.97;;;-0.20;99.90;;;;;;5071840;28;20446;-78
2023/04/06 00:36:01;;;;;;;678.17;638.83;;;-0.30;99.90;;;;;;5071434;28;20455;-78
2023/04/06 00:38:27;;;;;;;734.55;688.03;;;-0.30;99.90;;;;;;5071858;28;21004;-78
2023/04/06 00:40:55;;;;;;;762.13;712.17;;;-0.20;99.90;;;;;;5071721;28;20188;-78
2023/04/06 00:43:22;;;;;;;746.92;697.90;;;-0.20;99.90;;;;;;5071657;28;20470;-78
2023/04/06 00:45:49;;;;;;;726.13;680.63;;;-0.20;99.90;;;;;;5071479;28;20212;-78
2023/04/06 00:48:16;;;;;;;717.77;673.37;;;-0.20;99.90;;;;;;5071811;28;20478;-78
2023/04/06 00:50:44;;;;;;;657.50;619.90;;;-0.10;99.90;;;;;;5071591;28;20457;-78
2023/04/06 00:53:11;;;;;;;672.33;634.38;;;-0.30;99.90;;;;;;5071531;28;20446;-78
2023/04/06 00:55:39;;;;;;;666.53;628.05;;;-0.30;99.90;;;;;;5070308;28;20196;-78
2023/04/06 00:58:07;;;;;;;649.72;613.30;;;-0.20;99.90;;;;;;5073840;28;20287;-78
2023/04/06 01:00:34;;;;;;;675.70;640.03;;;-0.30;99.90;;;;;;5075908;28;20234;-78
2023/04/06 01:03:01;;;;;;;641.25;607.00;;;-0.10;99.90;;;;;;5075523;28;20446;-78
2023/04/06 01:05:28;;;;;;;636.30;604.97;;;-0.10;99.90;;;;;;5075439;28;20274;-78
2023/04/06 01:07:57;;;;;;;627.40;596.53;;;0.00;99.90;;;;;;5075142;28;20477;-78
2023/04/06 01:10:25;;;;;;;582.20;555.60;;;0.00;99.90;;;;;;5074291;28;20458;-78
2023/04/06 01:12:52;;;;;;;585.55;558.25;;;0.10;99.90;;;;;;5075152;28;20503;-78
2023/04/06 01:15:19;;;;;;;545.00;518.93;;;0.00;99.90;;;;;;5075147;28;20185;-78
2023/04/06 01:17:46;;;;;;;499.60;477.13;;;-0.10;99.90;;;;;;5075060;28;21012;-79
2023/04/06 01:20:12;;;;;;;510.57;488.60;;;-0.20;99.90;;;;;;5075032;28;20450;-78
2023/04/06 01:22:41;;;;;;;496.27;474.17;;;-0.10;99.90;;;;;;5075357;28;20450;-78
2023/04/06 01:25:09;;;;;;;587.97;560.27;;;-0.10;99.90;;;;;;5073093;28;20485;-78
2023/04/06 01:27:36;;;;;;;573.97;546.77;;;-0.20;99.90;;;;;;5075040;28;20490;-78
2023/04/06 01:30:03;;;;;;;594.73;566.60;;;-0.40;99.90;;;;;;5074926;28;20984;-79
2023/04/06 01:32:30;;;;;;;563.97;537.67;;;-0.50;99.90;;;;;;5054492;28;20458;-79
2023/04/06 01:34:57;;;;;;;545.97;521.10;;;-0.50;99.90;;;;;;5060040;28;20446;-78
2023/04/06 01:37:24;;;;;;;540.33;514.93;;;-0.50;99.90;;;;;;5074605;28;20473;-78
2023/04/06 01:39:53;;;;;;;639.17;608.80;;;-0.40;99.90;;;;;;5053445;28;20537;-78
2023/04/06 01:42:21;;;;;;;630.22;598.50;;;-0.30;99.90;;;;;;5057814;28;20188;-78
2023/04/06 01:47:20;;;;;;;677.43;639.33;;;-0.30;99.90;;;;;;5032727;28;20483;-77
2023/04/06 01:49:46;;;;;;;630.80;597.33;;;-0.20;99.90;;;;;;5034425;28;20482;-77
2023/04/06 01:52:13;;;;;;;607.93;575.93;;;-0.30;99.90;;;;;;5020368;28;20454;-77
2023/04/06 01:54:40;;;;;;;600.80;570.30;;;-0.30;99.90;;;;;;5034637;28;20441;-77
2023/04/06 01:57:08;;;;;;;593.13;562.97;;;-0.30;99.90;;;;;;5034309;28;20444;-77
2023/04/06 01:59:35;;;;;;;590.20;561.63;;;-0.30;99.90;;;;;;5034313;28;20233;-77
2023/04/06 02:02:02;;;;;;;534.80;508.63;;;-0.30;99.90;;;;;;5034274;28;20193;-77
2023/04/06 02:04:29;;;;;;;571.63;544.23;;;-0.40;99.90;;;;;;5034385;28;20223;-77
2023/04/06 02:06:56;;;;;;;519.27;496.30;;;-0.30;99.90;;;;;;5034015;28;20463;-76
2023/04/06 02:09:22;;;;;;;538.17;512.72;;;-0.30;99.90;;;;;;5033302;28;20475;-77
2023/04/06 02:11:50;;;;;;;519.97;496.20;;;-0.30;99.90;;;;;;5034047;28;20272;-77
2023/04/06 02:14:18;;;;;;;451.05;432.02;;;-0.40;99.90;;;;;;5033969;28;20197;-77
2023/04/06 02:16:45;;;;;;;419.98;402.30;;;-0.40;99.90;;;;;;5034328;28;20197;-76
2023/04/06 02:19:12;;;;;;;413.95;396.65;;;-0.40;99.90;;;;;;5034126;28;20727;-77
2023/04/06 02:21:38;;;;;;;405.33;389.10;;;-0.50;99.90;;;;;;5033767;28;20276;-77
2023/04/06 02:24:06;;;;;;;399.90;384.30;;;-0.40;99.90;;;;;;5016095;28;20483;-77
2023/04/06 02:26:35;;;;;;;476.13;456.17;;;-0.50;99.90;;;;;;5033698;28;20459;-77
2023/04/06 02:29:02;;;;;;;447.05;429.52;;;-0.60;99.90;;;;;;5034070;28;20224;-77
2023/04/06 02:31:30;;;;;;;486.23;466.70;;;-0.50;99.90;;;;;;5033486;28;20197;-77
2023/04/06 02:33:57;;;;;;;407.88;391.80;;;-0.50;99.90;;;;;;5033845;28;20448;-77
2023/04/06 02:36:24;;;;;;;364.45;350.15;;;-0.60;99.90;;;;;;5015682;28;20229;-77
2023/04/06 02:38:51;;;;;;;380.77;365.52;;;-0.60;99.90;;;;;;5031320;28;20294;-77
2023/04/06 02:41:18;;;;;;;385.33;370.45;;;-0.60;99.90;;;;;;5033540;28;20869;-76
2023/04/06 02:43:45;;;;;;;419.25;402.02;;;-0.50;99.90;;;;;;5033475;28;20220;-76
2023/04/06 02:46:12;;;;;;;395.88;380.55;;;-0.50;99.90;;;;;;5033178;28;20208;-76
2023/04/06 02:48:40;;;;;;;372.90;358.13;;;-0.50;99.90;;;;;;5033557;28;20210;-78
2023/04/06 02:51:07;;;;;;;338.27;325.48;;;-0.40;99.90;;;;;;5033709;28;20288;-77
2023/04/06 02:53:33;;;;;;;314.30;302.17;;;-0.40;99.90;;;;;;5033065;28;20188;-76
2023/04/06 02:56:00;;;;;;;321.40;308.40;;;-0.40;99.90;;;;;;5033103;28;20196;-76
2023/04/06 02:58:27;;;;;;;332.60;319.65;;;-0.50;99.90;;;;;;5032970;28;20475;-76
2023/04/06 03:00:55;;;;;;;281.07;270.13;;;-0.40;99.90;;;;;;5033222;28;20212;-77
2023/04/06 03:03:22;;;;;;;297.27;285.60;;;-0.50;99.90;;;;;;5030051;28;20459;-76
2023/04/06 03:05:50;;;;;;;309.40;296.90;;;-0.50;99.90;;;;;;5033099;28;20662;-76
2023/04/06 03:08:17;;;;;;;281.60;270.60;;;-0.50;99.90;;;;;;5032831;28;20237;-76
2023/04/06 03:10:44;;;;;;;289.08;277.52;;;-0.50;99.90;;;;;;5033191;28;20448;-77
2023/04/06 03:13:11;;;;;;;335.17;322.27;;;-0.60;99.90;;;;;;5033381;28;20229;-77
2023/04/06 03:15:38;;;;;;;322.52;310.08;;;-0.60;99.90;;;;;;5033060;28;20204;-76
2023/04/06 03:18:04;;;;;;;328.90;316.15;;;-0.70;99.90;;;;;;5032384;28;20606;-77
2023/04/06 03:20:31;;;;;;;343.33;330.38;;;-0.60;99.90;;;;;;5032540;28;20229;-77
2023/04/06 03:23:00;;;;;;;327.13;314.27;;;-0.70;99.90;;;;;;5032725;28;20204;-76
2023/04/06 03:25:30;;;;;;;348.33;334.73;;;-0.70;99.90;;;;;;5031614;28;20297;-76
2023/04/06 03:27:57;;;;;;;343.90;330.25;;;-0.70;99.90;;;;;;5032642;28;20213;-76
2023/04/06 03:30:24;;;;;;;360.67;345.90;;;-0.70;99.90;;;;;;5015187;28;20232;-77
2023/04/06 03:32:51;;;;;;;382.70;367.23;;;-0.70;99.90;;;;;;5032560;28;20233;-76
2023/04/06 03:35:21;;;;;;;411.57;395.37;;;-0.60;99.90;;;;;;5031867;28;20182;-76
2023/04/06 03:37:48;;;;;;;401.42;384.75;;;-0.70;99.90;;;;;;5032694;28;20476;-77
2023/04/06 03:40:18;;;;;;;393.80;378.13;;;-0.70;99.90;;;;;;5031752;28;20227;-77
2023/04/06 03:42:45;;;;;;;444.33;425.85;;;-0.80;99.90;;;;;;5031835;28;20459;-76
2023/04/06 03:45:15;;;;;;;478.20;457.95;;;-1.00;99.90;;;;;;5032297;28;20308;-77
2023/04/06 03:47:42;;;;;;;500.25;478.80;;;-1.00;99.90;;;;;;5032266;28;20255;-77
2023/04/06 03:50:10;;;;;;;512.08;490.63;;;-0.90;99.90;;;;;;5032189;28;20220;-77
2023/04/06 03:52:37;;;;;;;488.60;467.55;;;-0.90;99.90;;;;;;5032593;28;20194;-77
2023/04/06 03:55:05;;;;;;;506.42;485.08;;;-1.00;99.90;;;;;;5032479;28;20197;-77
2023/04/06 03:57:33;;;;;;;534.03;510.70;;;-1.00;99.90;;;;;;5031726;28;20189;-76
2023/04/06 04:00:00;;;;;;;581.85;554.95;;;-1.10;99.90;;;;;;5032109;28;20204;-76
2023/04/06 04:02:29;;;;;;;678.25;644.22;;;-1.00;99.90;;;;;;5032424;28;20673;-76
2023/04/06 04:04:55;;;;;;;718.70;679.97;;;-1.00;99.90;;;;;;5032479;28;20214;-77
2023/04/06 04:07:22;;;;;;;668.28;633.70;;;-1.00;99.90;;;;;;5032150;28;20288;-77
2023/04/06 04:09:49;;;;;;;668.70;634.17;;;-0.90;99.90;;;;;;5032099;28;20205;-77
2023/04/06 04:12:16;;;;;;;638.42;605.60;;;-0.90;99.90;;;;;;5031466;28;20194;-77
2023/04/06 04:14:44;;;;;;;619.95;590.03;;;-0.80;99.90;;;;;;5030857;28;20260;-77
2023/04/06 04:17:11;;;;;;;593.35;564.40;;;-0.80;99.90;;;;;;5030708;28;20189;-77
2023/04/06 04:19:38;;;;;;;599.65;568.47;;;-0.90;99.90;;;;;;5031483;28;20755;-77
2023/04/06 04:22:06;;;;;;;608.22;579.15;;;-1.00;99.90;;;;;;5031412;28;20680;-77
2023/04/06 04:24:33;;;;;;;624.60;593.13;;;-0.90;99.90;;;;;;5031794;28;20686;-77
2023/04/06 04:27:01;;;;;;;616.58;586.20;;;-0.90;99.90;;;;;;5031295;28;20190;-77
2023/04/06 04:29:28;;;;;;;645.85;614.33;;;-0.90;99.90;;;;;;5031685;28;20216;-77
2023/04/06 04:31:56;;;;;;;671.15;638.45;;;-0.90;99.90;;;;;;5030239;28;20193;-77
2023/04/06 04:34:25;;;;;;;596.42;568.28;;;-0.90;99.90;;;;;;5031425;28;20240;-77
2023/04/06 04:36:51;;;;;;;662.03;629.22;;;-0.80;99.90;;;;;;5031399;28;20276;-77
2023/04/06 04:39:18;;;;;;;668.15;633.88;;;-0.80;99.90;;;;;;5031370;28;20214;-77
2023/04/06 04:41:47;;;;;;;670.63;636.42;;;-0.70;99.90;;;;;;5030313;28;20236;-77
2023/04/06 04:44:17;;;;;;;650.53;616.72;;;-0.60;99.90;;;;;;5031543;28;20209;-77
2023/04/06 04:46:44;;;;;;;664.90;629.10;;;-0.80;99.90;;;;;;5030792;28;20202;-77
2023/04/06 04:49:15;;;;;;;634.45;601.15;;;-0.80;99.90;;;;;;5031048;28;20220;-77
2023/04/06 04:51:42;;;;;;;643.22;610.22;;;-0.90;99.90;;;;;;5030754;28;20240;-77
2023/04/06 04:54:08;;;;;;;710.60;669.63;;;-0.80;99.90;;;;;;5031271;28;20197;-77
2023/04/06 04:56:37;;;;;;;666.00;631.72;;;-0.70;99.90;;;;;;5030861;28;20228;-77
2023/04/06 04:59:05;;;;;;;687.45;649.33;;;-0.70;99.90;;;;;;5031182;28;20216;-77
2023/04/06 05:01:31;;;;;;;666.05;630.88;;;-0.70;99.90;;;;;;5030733;28;20197;-77
2023/04/06 05:03:58;;;;;;;675.95;640.22;;;-0.60;99.90;;;;;;5030240;28;20285;-76
2023/04/06 05:06:32;;;;;;;660.55;626.17;;;-0.60;99.90;;;;;;5031310;28;20213;-80
2023/04/06 05:08:59;;;;;;;679.88;643.38;;;-0.50;99.90;;;;;;5030605;28;20220;-77
2023/04/06 05:11:26;;;;;;;645.05;612.63;;;-0.50;99.90;;;;;;5031403;28;20197;-77
2023/04/06 05:13:53;;;;;;;598.88;569.50;;;-0.40;99.90;;;;;;5030360;28;20194;-77
2023/04/06 05:16:20;;;;;;;527.97;504.55;;;-0.30;99.90;;;;;;5031088;28;20190;-77
2023/04/06 05:18:48;;;;;;;538.15;513.50;;;-0.10;99.90;;;;;;5030095;28;20239;-77
2023/04/06 05:21:15;;;;;;;532.75;508.10;;;0.00;99.90;;;;;;5030745;28;20700;-77
2023/04/06 05:23:43;;;;;;;524.53;499.83;;;0.10;99.90;;;;;;5030690;28;20205;-77
2023/04/06 05:26:11;;;;;;;421.33;404.57;;;0.20;99.90;;;;;;5030850;28;20476;-77
2023/04/06 05:28:38;;;;;;;409.40;392.48;;;0.20;99.90;;;;;;5030536;28;20468;-77
2023/04/06 05:31:08;;;;;;;349.13;334.80;;;0.30;99.90;;;;;;5031043;28;20190;-77
2023/04/06 05:33:35;;;;;;;338.00;324.30;;;0.40;99.90;;;;;;5029947;28;20661;-77
2023/04/06 05:36:03;;;;;;;327.73;314.13;;;0.40;99.90;;;;;;5029002;28;20190;-77
2023/04/06 05:38:30;;;;;;;336.63;322.53;;;0.50;99.90;;;;;;5029509;28;20479;-77
2023/04/06 05:40:58;;;;;;;343.53;329.73;;;0.50;99.90;;;;;;5030708;28;20535;-77
2023/04/06 05:43:25;;;;;;;353.07;338.33;;;0.60;99.90;;;;;;5031144;28;20448;-77
2023/04/06 05:45:52;;;;;;;345.33;331.03;;;0.60;99.90;;;;;;5034032;28;21037;-77
2023/04/06 05:48:19;;;;;;;345.97;330.97;;;0.70;99.90;;;;;;5033377;28;20472;-76
2023/04/06 05:50:50;;;;;;;340.00;325.57;;;0.80;99.90;;;;;;5034172;28;20448;-77
2023/04/06 05:53:20;;;;;;;289.07;277.50;;;0.90;99.90;;;;;;5033817;28;20449;-77
2023/04/06 05:55:47;;;;;;;229.93;220.40;;;1.10;99.90;;;;;;5016338;28;20498;-77
2023/04/06 05:58:17;;;;;;;159.80;152.10;;;1.20;99.90;;;;;;5033980;28;20468;-77
2023/04/06 06:00:45;;;;;;;86.07;80.73;;;1.40;99.90;;;;;;5032762;28;20456;-77
2023/04/06 06:03:13;;;;;;;41.17;37.63;;;1.60;99.90;;;;;;5033720;28;20448;-77
2023/04/06 06:05:40;;;;;;;28.17;23.50;;;1.80;99.90;;;;;;5033604;28;20478;-77
2023/04/06 06:08:07;;;;;;;26.60;21.90;;;2.00;99.90;;;;;;5033390;28;20468;-77
2023/04/06 06:10:35;;;;;;;28.07;16.50;;;2.10;99.90;;;;;;5018436;28;20456;-77
2023/04/06 06:13:02;;;;;;;19.87;14.47;;;2.20;99.90;;;;;;5032669;28;20491;-77
2023/04/06 06:15:30;;;;;;;23.97;14.87;;;2.30;99.90;;;;;;5032424;28;20445;-77
2023/04/06 06:18:00;;;;;;;26.60;14.07;;;2.50;99.90;;;;;;5015428;28;20469;-76
2023/04/06 06:20:27;;;;;;;26.03;13.17;;;2.70;99.90;;;;;;5033474;28;20535;-77
2023/04/06 06:22:54;;;;;;;20.50;13.73;;;2.80;99.90;;;;;;5034112;28;20484;-77
2023/04/06 06:25:24;;;;;;;17.57;12.53;;;3.00;99.90;;;;;;5033466;28;20492;-76
2023/04/06 06:27:50;;;;;;;21.27;13.17;;;3.20;99.90;;;;;;5032637;28;20480;-76
2023/04/06 06:30:17;;;;;;;26.02;14.02;;;3.30;99.90;;;;;;5032731;28;20485;-77
2023/04/06 06:32:45;;;;;;;23.53;14.00;;;3.50;99.90;;;;;;5033576;28;20194;-77
2023/04/06 06:35:12;;;;;;;22.17;12.50;;;3.80;99.90;;;;;;5033711;28;20454;-77
2023/04/06 06:37:39;;;;;;;18.47;12.63;;;3.90;99.90;;;;;;5033885;28;20551;-77
2023/04/06 06:40:10;;;;;;;16.90;11.40;;;4.20;99.90;;;;;;5033774;28;20452;-76
2023/04/06 06:42:37;;;;;;;19.93;11.80;;;4.40;99.80;;;;;;5015834;28;20464;-77
2023/04/06 06:45:05;;;;;;;19.90;12.77;;;4.70;99.20;;;;;;5033135;28;20473;-77
2023/04/06 06:47:32;;;;;;;21.20;12.17;;;4.90;99.30;;;;;;5033443;28;20495;-77
2023/04/06 06:50:00;;;;;;;23.93;12.63;;;5.10;96.80;;;;;;5033646;28;20456;-77
2023/04/06 06:52:28;;;;;;;23.73;12.07;;;5.40;96.30;;;;;;5033632;28;20460;-77
2023/04/06 06:54:56;;;;;;;19.47;13.27;;;5.60;96.40;;;;;;5032573;28;20448;-77
2023/04/06 06:57:23;;;;;;;19.00;11.90;;;5.80;95.80;;;;;;5031507;28;20461;-77
2023/04/06 06:59:50;;;;;;;21.10;11.77;;;6.00;94.10;;;;;;5033186;28;20479;-77
2023/04/06 07:02:16;;;;;;;19.20;11.77;;;6.20;94.50;;;;;;5032800;28;20461;-77
2023/04/06 07:04:43;;;;;;;16.90;11.17;;;6.20;92.50;;;;;;4998651;28;20479;-77
2023/04/06 07:07:12;;;;;;;15.20;10.90;;;6.30;91.80;;;;;;5032744;28;20825;-78
2023/04/06 07:09:38;;;;;;;17.53;10.47;;;6.40;91.00;;;;;;5032758;28;20472;-77
2023/04/06 07:12:06;;;;;;;20.00;10.77;;;6.60;90.50;;;;;;5032634;28;20456;-77
2023/04/06 07:14:32;;;;;;;22.80;10.93;;;6.60;90.10;;;;;;5032840;28;20460;-77
2023/04/06 07:17:02;;;;;;;18.03;9.40;;;6.70;90.10;;;;;;5032533;28;20452;-77
2023/04/06 07:19:29;;;;;;;19.13;12.13;;;6.80;88.80;;;;;;5032531;28;20476;-77
2023/04/06 07:21:56;;;;;;;18.47;9.83;;;6.90;90.20;;;;;;5033255;28;20460;-77
2023/04/06 07:24:24;;;;;;;16.10;10.47;;;7.10;89.50;;;;;;5032196;28;20456;-77
2023/04/06 07:26:51;;;;;;;18.80;10.30;;;7.30;90.70;;;;;;5032624;28;20519;-77
2023/04/06 07:29:17;;;;;;;15.70;10.53;;;7.30;83.40;;;;;;5032495;28;20508;-77
2023/04/06 07:31:44;;;;;;;20.10;10.63;;;7.40;82.50;;;;;;5031277;28;20522;-76
2023/04/06 07:34:11;;;;;;;20.00;9.53;;;7.50;82.00;;;;;;5032186;28;20459;-77
2023/04/06 07:36:38;;;;;;;15.90;9.70;;;7.50;82.40;;;;;;5031530;28;20454;-77
2023/04/06 07:39:05;;;;;;;25.33;10.83;;;7.70;84.40;;;;;;5032249;28;21022;-77
2023/04/06 07:41:33;;;;;;;17.77;10.50;;;7.60;83.60;;;;;;5032348;28;20455;-77
2023/04/06 07:44:00;;;;;;;21.43;10.37;;;7.70;80.30;;;;;;5030767;28;20818;-77
2023/04/06 07:46:27;;;;;;;17.00;9.33;;;7.80;80.00;;;;;;5030893;28;20483;-77
2023/04/06 07:48:55;;;;;;;19.23;9.37;;;7.80;79.80;;;;;;5031855;28;20472;-77
2023/04/06 07:51:21;;;;;;;18.67;10.77;;;7.80;79.60;;;;;;5031840;28;20484;-77
2023/04/06 07:53:48;;;;;;;29.50;11.63;;;8.10;80.00;;;;;;5030887;28;20536;-78
2023/04/06 07:56:16;;;;;;;20.53;10.67;;;8.10;77.70;;;;;;5031908;28;20454;-77
2023/04/06 07:58:50;;;;;;;19.93;11.13;;;8.30;76.50;;;;;;5032108;28;20464;-77
2023/04/06 08:01:17;;;;;;;23.63;11.70;;;8.50;76.60;;;;;;5029220;28;20461;-77
2023/04/06 08:03:44;;;;;;;20.20;12.47;;;8.80;75.40;;;;;;5031538;28;20190;-77
2023/04/06 08:06:11;;;;;;;20.37;11.13;;;9.10;74.80;;;;;;5031102;28;20507;-78
2023/04/06 08:08:38;;;;;;;19.30;12.30;;;9.40;73.50;;;;;;5013926;28;20472;-78
2023/04/06 08:11:05;;;;;;;18.77;11.87;;;9.60;70.40;;;;;;5014496;28;21112;-78
2023/04/06 08:13:32;;;;;;;20.37;11.47;;;9.80;68.70;;;;;;5014637;28;20884;-78
2023/04/06 08:16:00;;;;;;;16.70;10.50;;;10.00;67.70;;;;;;5031740;28;20444;-78
2023/04/06 08:18:28;;;;;;;20.63;10.20;;;10.40;64.70;;;;;;5031750;28;20571;-78
2023/04/06 08:20:55;;;;;;;20.53;10.40;;;10.50;62.20;;;;;;5031809;28;20502;-78
2023/04/06 08:23:22;;;;;;;17.87;10.87;;;10.80;61.70;;;;;;5031995;28;20452;-77
2023/04/06 08:25:50;;;;;;;17.80;10.13;;;11.10;59.30;;;;;;5031690;28;20476;-77
2023/04/06 08:28:16;;;;;;;17.50;11.93;;;11.50;58.80;;;;;;5031676;28;20675;-78
2023/04/06 08:30:44;;;;;;;21.67;10.63;;;11.90;57.20;;;;;;5031827;28;20459;-77
2023/04/06 08:33:12;;;;;;;18.30;9.57;;;12.10;54.50;;;;;;5031608;28;20482;-78
2023/04/06 08:35:39;;;;;;;26.70;9.77;;;11.90;50.70;;;;;;5031482;28;20453;-78
2023/04/06 08:38:08;;;;;;;20.20;10.73;;;11.90;50.00;;;;;;5031691;28;21018;-78
2023/04/06 08:40:37;;;;;;;19.87;10.20;;;12.00;47.50;;;;;;5031902;28;20518;-78
2023/04/06 08:43:11;;;;;;;21.07;9.93;;;12.40;47.80;;;;;;5031645;28;20956;-78
2023/04/06 08:45:41;;;;;;;18.00;9.80;;;12.50;46.20;;;;;;5031274;28;20480;-77
2023/04/06 08:48:09;;;;;;;19.00;9.57;;;12.50;46.20;;;;;;5031290;28;20499;-78
2023/04/06 08:50:39;;;;;;;19.90;10.70;;;12.50;46.20;;;;;;5031783;28;20452;-78
2023/04/06 08:53:07;;;;;;;23.53;10.53;;;12.70;44.20;;;;;;5031775;28;20475;-78
2023/04/06 08:55:37;;;;;;;21.90;10.37;;;12.70;40.90;;;;;;5031518;28;20459;-77
2023/04/06 08:58:07;;;;;;;20.63;10.60;;;13.00;41.10;;;;;;5031303;28;20487;-78
2023/04/06 09:00:38;;;;;;;24.00;12.03;;;13.20;41.00;;;;;;5031793;28;20459;-78
2023/04/06 09:03:06;;;;;;;16.43;9.50;;;13.30;38.10;;;;;;5031690;28;20464;-78
2023/04/06 09:05:33;;;;;;;22.23;10.67;;;13.30;38.50;;;;;;5031217;28;20805;-78
2023/04/06 09:08:01;;;;;;;17.93;10.87;;;13.30;38.90;;;;;;5032186;28;20860;-78
2023/04/06 09:10:29;;;;;;;19.80;10.33;;;13.20;38.00;;;;;;5031018;28;20453;-75
2023/04/06 09:13:05;;;;;;;19.70;10.07;;;13.30;38.10;;;;;;5030658;28;20535;-78
2023/04/06 09:15:31;;;;;;;14.90;9.17;;;13.20;34.30;;;;;;5030470;28;20506;-78
2023/04/06 09:17:59;;;;;;;26.13;10.30;;;13.40;35.00;;;;;;5031260;28;20484;-78
2023/04/06 09:20:28;;;;;;;17.97;10.80;;;13.20;34.20;;;;;;5017010;28;20457;-78
2023/04/06 09:22:55;;;;;;;14.47;9.13;;;13.50;35.00;;;;;;5034763;28;20960;-77
2023/04/06 09:25:26;;;;;;;18.73;11.13;;;13.80;33.20;;;;;;5034268;28;20860;-78
2023/04/06 09:28:00;;;;;;;19.20;10.87;;;13.80;32.70;;;;;;5034916;28;20557;-77
2023/04/06 09:30:27;;;;;;;19.17;10.90;;;14.30;34.50;;;;;;5034596;28;20451;-78
2023/04/06 09:32:55;;;;;;;16.77;10.63;;;14.40;30.10;;;;;;5034565;28;20460;-78
2023/04/06 09:35:23;;;;;;;27.03;10.90;;;14.80;27.90;;;;;;5034186;28;20998;-78
2023/04/06 09:37:51;;;;;;;22.17;10.80;;;14.90;28.20;;;;;;5034239;28;20494;-77
2023/04/06 09:40:19;;;;;;;20.20;11.77;;;15.20;28.30;;;;;;5034582;28;20545;-78
2023/04/06 09:42:57;;;;;;;25.40;11.20;;;15.00;26.40;;;;;;5034965;28;20465;-82
2023/04/06 09:45:34;;;;;;;20.05;12.15;;;15.10;27.00;;;;;;5000171;28;20453;-82
2023/04/06 09:48:02;;;;;;;20.15;12.25;;;15.40;26.70;;;;;;5034521;28;20485;-81
2023/04/06 09:50:29;;;;;;;21.53;11.53;;;15.90;26.00;;;;;;5034574;28;20211;-82
2023/04/06 09:53:01;;;;;;;17.73;10.90;;;16.00;24.10;;;;;;5035332;28;20473;-82
2023/04/06 09:55:36;;;;;;;22.73;11.27;;;15.90;22.90;;;;;;5016601;28;20514;-82
2023/04/06 09:58:13;;;;;;;20.70;11.63;;;16.20;23.10;;;;;;5034750;28;21025;-82
2023/04/06 10:00:49;;;;;;;20.27;10.73;;;15.70;22.40;;;;;;5034769;28;20450;-82
2023/04/06 10:03:26;;;;;;;16.47;9.43;;;15.70;23.90;;;;;;5034408;28;20462;-82
2023/04/06 10:05:58;;;;;;;18.37;10.40;;;15.60;23.90;;;;;;5034681;28;20506;-82
2023/04/06 10:08:28;;;;;;;22.80;11.10;;;15.90;24.90;;;;;;5034780;28;20882;-81
2023/04/06 10:10:59;;;;;;;21.87;11.00;;;16.20;23.60;;;;;;5017060;28;20444;-82
2023/04/06 10:13:30;;;;;;;17.57;9.97;;;16.70;21.20;;;;;;5034399;28;20452;-82
2023/04/06 10:16:03;;;;;;;25.43;11.50;;;16.70;21.00;;;;;;5034064;28;20515;-82
2023/04/06 10:18:30;;;;;;;23.10;11.50;;;16.50;21.90;;;;;;5016544;28;20534;-82
2023/04/06 10:21:02;;;;;;;26.23;11.43;;;16.60;21.20;;;;;;5034593;28;20456;-82
2023/04/06 10:23:35;;;;;;;19.67;11.03;;;16.80;20.10;;;;;;5033413;28;20463;-78
2023/04/06 10:26:16;;;;;;;23.13;11.23;;;16.90;21.30;;;;;;5034273;28;20836;-83
2023/04/06 10:28:47;;;;;;;18.30;10.40;;;16.30;17.10;;;;;;5034280;28;20851;-83
2023/04/06 10:31:15;;;;;;;19.80;10.80;;;15.70;16.60;;;;;;5015194;28;20455;-83
2023/04/06 10:33:43;;;;;;;17.80;9.00;;;15.60;17.40;;;;;;5033994;28;20535;-83
2023/04/06 10:36:20;;;;;;;20.97;10.13;;;15.60;16.50;;;;;;4999618;28;20529;-82
2023/04/06 10:38:47;;;;;;;17.10;9.17;;;15.50;16.50;;;;;;5034206;28;20484;-83
2023/04/06 10:41:18;;;;;;;20.43;9.43;;;15.60;20.20;;;;;;5033973;28;20458;-82
2023/04/06 10:43:57;;;;;;;21.87;10.37;;;15.60;19.70;;;;;;5033543;28;20551;-82
2023/04/06 10:46:28;;;;;;;19.10;9.73;;;15.40;16.40;;;;;;5033760;28;20495;-82
2023/04/06 10:48:58;;;;;;;18.97;8.80;;;15.70;22.70;;;;;;5033681;28;20506;-83
2023/04/06 10:51:32;;;;;;;16.73;8.53;;;16.00;19.60;;;;;;5033782;28;20978;-82
2023/04/06 10:54:00;;;;;;;19.70;10.70;;;16.40;17.10;;;;;;5015024;28;20465;-82
2023/04/06 10:56:29;;;;;;;20.63;9.53;;;16.30;17.10;;;;;;5033590;28;20222;-82
2023/04/06 10:58:57;;;;;;;17.87;9.03;;;15.60;18.90;;;;;;5014712;28;20926;-78
2023/04/06 11:01:26;;;;;;;19.27;10.03;;;15.30;17.60;;;;;;5032766;28;21101;-79
2023/04/06 11:03:55;;;;;;;22.30;9.50;;;15.10;22.60;;;;;;5032294;28;20536;-78
2023/04/06 11:06:24;;;;;;;20.90;9.13;;;15.50;23.80;;;;;;5031981;28;20451;-78
2023/04/06 11:08:51;;;;;;;18.63;9.80;;;15.40;20.80;;;;;;5033028;28;20481;-78
2023/04/06 11:11:19;;;;;;;31.37;10.60;;;15.20;20.10;;;;;;5033473;28;20458;-78
2023/04/06 11:13:49;;;;;;;19.47;9.17;;;15.30;21.80;;;;;;5032528;28;20463;-78
2023/04/06 11:16:19;;;;;;;19.47;10.20;;;15.30;22.60;;;;;;5032616;28;20462;-77
2023/04/06 11:18:55;;;;;;;16.97;10.13;;;15.30;19.20;;;;;;5031052;28;20569;-78
2023/04/06 11:21:39;;;;;;;15.93;9.53;;;15.30;19.20;;;;;;5032321;28;20465;-78
2023/04/06 11:24:08;;;;;;;16.40;9.40;;;15.30;17.60;;;;;;5013821;28;20484;-78
2023/04/06 11:26:39;;;;;;;18.93;10.13;;;15.60;18.40;;;;;;5032540;28;20458;-78
2023/04/06 11:29:09;;;;;;;19.23;11.20;;;15.70;18.00;;;;;;5031790;28;20481;-79
2023/04/06 11:31:52;;;;;;;18.43;11.07;;;16.10;20.10;;;;;;5031905;28;20973;-79
2023/04/06 11:34:20;;;;;;;18.73;10.20;;;16.30;17.10;;;;;;5031415;28;20454;-78
2023/04/06 11:36:49;;;;;;;19.43;10.80;;;16.20;17.00;;;;;;5032007;28;20497;-78
2023/04/06 11:39:22;;;;;;;16.40;9.93;;;16.50;19.30;;;;;;5031605;28;20473;-78
2023/04/06 11:41:50;;;;;;;20.97;10.83;;;16.40;17.10;;;;;;5030974;28;20495;-78
2023/04/06 11:44:27;;;;;;;21.13;11.17;;;16.10;16.90;;;;;;5031008;28;20454;-78
2023/04/06 11:46:58;;;;;;;21.90;10.87;;;16.40;16.70;;;;;;5031110;28;20463;-78
2023/04/06 11:49:30;;;;;;;19.10;9.70;;;16.40;17.10;;;;;;5031597;28;20644;-78
2023/04/06 11:51:57;;;;;;;18.40;9.57;;;16.60;16.90;;;;;;5030919;28;20453;-79
2023/04/06 11:54:34;;;;;;;18.50;9.40;;;16.80;15.40;;;;;;5031277;28;20457;-78
2023/04/06 11:57:01;;;;;;;18.90;9.87;;;16.80;12.50;;;;;;5029568;28;20482;-78
2023/04/06 11:59:31;;;;;;;15.63;8.50;;;16.30;13.20;;;;;;5032332;28;20472;-77
2023/04/06 12:02:00;;;;;;;17.83;8.87;;;15.90;12.50;;;;;;5032526;28;20456;-77
2023/04/06 12:04:26;;;;;;;23.53;8.67;;;15.50;15.00;;;;;;5031573;28;20479;-77
2023/04/06 12:06:55;;;;;;;20.57;9.87;;;15.40;17.20;;;;;;5031803;28;20543;-77
2023/04/06 12:09:22;;;;;;;17.13;9.60;;;15.00;15.10;;;;;;5031653;28;20521;-77
2023/04/06 12:11:49;;;;;;;15.40;8.40;;;15.00;16.30;;;;;;5014553;28;20465;-76
2023/04/06 12:14:16;;;;;;;19.10;8.43;;;14.90;17.90;;;;;;5014374;28;20449;-76
2023/04/06 12:16:43;;;;;;;16.50;8.20;;;14.70;19.30;;;;;;5031996;28;20477;-77
2023/04/06 12:19:11;;;;;;;14.00;7.30;;;14.70;19.80;;;;;;5031986;28;20517;-76
2023/04/06 12:21:38;;;;;;;17.17;8.23;;;14.80;18.00;;;;;;5031837;28;20453;-77
2023/04/06 12:24:06;;;;;;;14.00;7.60;;;14.90;19.60;;;;;;5031648;28;20830;-77
2023/04/06 12:26:33;;;;;;;15.90;9.20;;;14.90;18.70;;;;;;5031698;28;20460;-76
2023/04/06 12:29:06;;;;;;;14.00;8.23;;;15.40;21.30;;;;;;5031558;28;20537;-77